createdAt,value
2024-01-01T00:01:55.966Z,100.00
2024-01-01T00:07:17.820Z,100.00
2024-01-01T00:12:39.679Z,100.00
2024-01-01T00:18:01.494Z,100.00
2024-01-01T00:23:24.447Z,100.00
2024-01-01T00:28:46.197Z,100.00
2024-01-01T00:34:08.100Z,100.00
2024-01-01T00:39:29.845Z,100.00
2024-01-01T00:44:51.563Z,100.00
2024-01-01T00:50:13.809Z,100.00
2024-01-01T00:55:35.762Z,100.00
2024-01-01T01:00:57.665Z,100.00
2024-01-01T01:06:24.652Z,100.00
2024-01-01T01:11:47.236Z,100.00
2024-01-01T01:17:10.060Z,100.00
2024-01-01T01:22:31.969Z,99.72
2024-01-01T01:27:53.745Z,98.75
2024-01-01T01:33:15.626Z,100.00
2024-01-01T01:38:38.090Z,100.00
2024-01-01T01:43:59.927Z,100.00
2024-01-01T01:49:21.747Z,99.19
2024-01-01T01:54:46.425Z,98.33
2024-01-01T02:00:08.696Z,97.88
2024-01-01T02:05:30.835Z,98.18
2024-01-01T02:10:52.884Z,97.59
2024-01-01T02:16:14.707Z,98.83
2024-01-01T02:21:36.452Z,98.26
2024-01-01T02:26:58.195Z,98.58
2024-01-01T02:32:19.968Z,100.00
2024-01-01T02:37:41.800Z,98.85
2024-01-01T02:43:04.442Z,98.42
2024-01-01T02:48:26.284Z,98.29
2024-01-01T02:53:48.102Z,98.67
2024-01-01T02:59:11.567Z,98.85
2024-01-01T03:04:33.363Z,99.13
2024-01-01T03:09:55.122Z,100.00
2024-01-01T03:15:16.870Z,100.00
2024-01-01T03:20:38.694Z,100.00
2024-01-01T03:26:00.573Z,100.00
2024-01-01T03:31:22.314Z,100.00
2024-01-01T03:36:44.064Z,100.00
2024-01-01T03:42:05.868Z,100.00
2024-01-01T03:47:29.022Z,100.00
2024-01-01T03:52:50.864Z,99.75
2024-01-01T03:58:12.692Z,98.76
2024-01-01T04:03:34.443Z,99.42
2024-01-01T04:08:56.227Z,100.00
2024-01-01T04:14:18.066Z,100.00
2024-01-01T04:19:40.000Z,100.00
2024-01-01T04:25:01.873Z,100.00
2024-01-01T04:30:23.619Z,100.00
2024-01-01T04:35:45.610Z,100.00
2024-01-01T04:41:07.438Z,100.00
2024-01-01T04:46:29.169Z,100.00
2024-01-01T04:51:50.875Z,100.00
2024-01-01T04:57:12.651Z,98.97
2024-01-01T05:02:34.377Z,97.97
2024-01-01T05:07:56.154Z,99.91
2024-01-01T05:13:17.921Z,99.83
2024-01-01T05:18:39.725Z,98.68
2024-01-01T05:24:01.501Z,98.93
2024-01-01T05:29:23.318Z,99.68
2024-01-01T05:34:45.144Z,99.43
2024-01-01T05:40:07.402Z,97.89
2024-01-01T05:45:29.114Z,99.86
2024-01-01T05:50:50.831Z,98.08
2024-01-01T05:56:12.866Z,96.71
2024-01-01T06:01:34.656Z,97.73
2024-01-01T06:06:56.371Z,97.05
2024-01-01T06:12:18.113Z,97.32
2024-01-01T06:17:39.958Z,97.40
2024-01-01T06:23:03.619Z,98.11
2024-01-01T06:28:25.445Z,100.00
2024-01-01T06:33:47.251Z,100.00
2024-01-01T06:39:09.028Z,100.00
2024-01-01T06:44:30.771Z,98.87
2024-01-01T06:49:52.501Z,97.56
2024-01-01T06:55:16.856Z,98.09
2024-01-01T07:00:38.630Z,98.64
2024-01-01T07:06:00.406Z,98.87
2024-01-01T07:11:22.329Z,100.00
2024-01-01T07:16:44.146Z,100.00
2024-01-01T07:22:05.959Z,100.00
2024-01-01T07:27:27.700Z,100.00
2024-01-01T07:32:49.466Z,100.00
2024-01-01T07:38:11.329Z,99.77
2024-01-01T07:43:33.101Z,100.00
2024-01-01T07:48:54.902Z,100.00
2024-01-01T07:54:16.694Z,100.00
2024-01-01T07:59:38.397Z,99.55
2024-01-01T08:05:00.196Z,99.22
2024-01-01T08:10:22.039Z,98.05
2024-01-01T08:15:43.832Z,99.96
2024-01-01T08:21:05.854Z,100.00
2024-01-01T08:26:27.631Z,100.00
2024-01-01T08:31:49.456Z,100.00
2024-01-01T08:37:11.230Z,100.00
2024-01-01T08:42:32.987Z,100.00
2024-01-01T08:47:54.843Z,100.00
2024-01-01T08:53:17.051Z,100.00
2024-01-01T08:58:39.147Z,100.00
2024-01-01T09:04:01.003Z,100.00
2024-01-01T09:09:22.793Z,100.00
2024-01-01T09:14:44.499Z,99.66
2024-01-01T09:20:07.209Z,99.44
2024-01-01T09:25:29.034Z,100.00
2024-01-01T09:30:50.834Z,99.62
2024-01-01T09:36:13.344Z,100.00
2024-01-01T09:41:35.118Z,98.55
2024-01-01T09:46:56.950Z,98.05
2024-01-01T09:52:18.759Z,99.17
2024-01-01T09:57:40.520Z,98.10
2024-01-01T10:03:09.229Z,97.46
2024-01-01T10:08:30.953Z,98.86
2024-01-01T10:13:53.060Z,97.33
2024-01-01T10:19:14.896Z,97.11
2024-01-01T10:27:25.974Z,97.76
2024-01-01T10:32:48.478Z,96.92
2024-01-01T10:38:12.037Z,97.05
2024-01-01T10:43:34.892Z,97.94
2024-01-01T10:48:57.648Z,96.96
2024-01-01T10:54:25.547Z,96.44
2024-01-01T11:00:05.597Z,95.55
2024-01-01T11:05:35.120Z,96.09
2024-01-01T11:10:57.176Z,96.67
2024-01-01T11:16:19.039Z,96.62
2024-01-01T11:21:40.796Z,96.15
2024-01-01T11:27:32.252Z,95.15
2024-01-01T11:33:02.305Z,94.97
2024-01-01T11:38:24.136Z,95.72
2024-01-01T11:43:45.939Z,96.28
2024-01-01T11:49:08.594Z,96.38
2024-01-01T11:54:30.453Z,96.68
2024-01-01T11:59:52.832Z,96.36
2024-01-01T12:05:19.643Z,96.06
2024-01-01T12:10:41.534Z,96.32
2024-01-01T12:16:16.892Z,95.62
2024-01-01T12:21:40.328Z,96.39
2024-01-01T12:27:02.840Z,96.86
2024-01-01T12:32:25.247Z,96.98
2024-01-01T12:37:47.098Z,96.39
2024-01-01T12:43:08.961Z,96.76
2024-01-01T12:48:30.859Z,98.17
2024-01-01T12:53:54.471Z,97.58
2024-01-01T12:59:16.268Z,97.15
2024-01-01T13:04:37.998Z,96.92
2024-01-01T13:09:59.739Z,97.63
2024-01-01T13:15:21.475Z,98.13
2024-01-01T13:20:43.227Z,98.06
2024-01-01T13:26:05.060Z,97.85
2024-01-01T13:31:26.864Z,98.27
2024-01-01T13:36:48.722Z,98.56
2024-01-01T13:42:10.452Z,98.67
2024-01-01T13:47:32.278Z,99.82
2024-01-01T13:52:54.212Z,99.17
2024-01-01T13:58:16.010Z,99.35
2024-01-01T14:03:37.780Z,98.51
2024-01-01T14:08:59.585Z,98.55
2024-01-01T14:14:21.456Z,97.44
2024-01-01T14:19:43.276Z,97.79
2024-01-01T14:25:05.582Z,97.39
2024-01-01T14:30:27.363Z,97.27
2024-01-01T14:35:49.173Z,97.49
2024-01-01T14:41:11.406Z,97.16
2024-01-01T14:46:33.181Z,97.55
2024-01-01T14:51:54.865Z,98.74
2024-01-01T14:57:16.728Z,98.24
2024-01-01T15:02:38.538Z,97.84
2024-01-01T15:08:00.365Z,97.49
2024-01-01T15:13:22.125Z,99.03
2024-01-01T15:18:43.935Z,98.64
2024-01-01T15:24:06.034Z,99.02
2024-01-01T15:29:27.774Z,99.60
2024-01-01T15:34:49.576Z,99.18
2024-01-01T15:40:11.827Z,98.77
2024-01-01T15:45:33.592Z,98.68
2024-01-01T15:51:00.898Z,98.47
2024-01-01T15:56:29.369Z,98.25
2024-01-01T16:01:51.149Z,98.26
2024-01-01T16:07:12.905Z,98.56
2024-01-01T16:12:35.051Z,98.72
2024-01-01T16:17:56.882Z,98.69
2024-01-01T16:23:23.228Z,98.32
2024-01-01T16:28:45.721Z,98.26
2024-01-01T16:34:07.433Z,98.04
2024-01-01T16:39:29.192Z,98.86
2024-01-01T16:44:50.928Z,98.93
2024-01-01T16:50:12.712Z,98.94
2024-01-01T16:55:34.493Z,99.44
2024-01-01T17:00:56.239Z,99.39
2024-01-01T17:06:19.097Z,98.44
2024-01-01T17:11:43.956Z,98.80
2024-01-01T17:17:05.739Z,99.65
2024-01-01T17:22:27.465Z,99.34
2024-01-01T17:27:49.177Z,99.00
2024-01-01T17:33:11.251Z,99.04
2024-01-01T17:38:33.302Z,98.62
2024-01-01T17:43:55.064Z,99.17
2024-01-01T17:49:16.895Z,99.93
2024-01-01T17:54:41.492Z,99.33
2024-01-01T18:00:03.419Z,99.77
2024-01-01T18:05:25.183Z,99.62
2024-01-01T18:10:48.778Z,99.48
2024-01-01T18:16:11.011Z,99.70
2024-01-01T18:21:32.725Z,99.49
2024-01-01T18:26:54.477Z,99.72
2024-01-01T18:32:16.467Z,99.60
2024-01-01T18:37:38.209Z,100.00
2024-01-01T18:42:59.974Z,99.87
2024-01-01T18:48:21.887Z,99.49
2024-01-01T18:53:43.696Z,99.92
2024-01-01T18:59:05.542Z,99.81
2024-01-01T19:04:27.526Z,99.66
2024-01-01T19:09:49.325Z,99.79
2024-01-01T19:15:11.270Z,100.00
2024-01-01T19:20:33.039Z,99.39
2024-01-01T19:25:54.840Z,99.55
2024-01-01T19:31:16.647Z,100.00
2024-01-01T19:36:38.401Z,99.35
2024-01-01T19:42:00.168Z,99.98
2024-01-01T19:47:22.071Z,99.51
2024-01-01T19:52:43.827Z,99.00
2024-01-01T19:58:05.562Z,99.69
2024-01-01T20:03:27.362Z,99.46
2024-01-01T20:08:49.338Z,99.83
2024-01-01T20:14:11.169Z,100.00
2024-01-01T20:19:32.929Z,99.67
2024-01-01T20:24:54.699Z,99.20
2024-01-01T20:30:16.528Z,99.61
2024-01-01T20:35:38.276Z,99.66
2024-01-01T20:41:00.016Z,99.27
2024-01-01T20:46:22.128Z,99.80
2024-01-01T20:51:43.897Z,99.68
2024-01-01T20:57:05.730Z,99.31
2024-01-01T21:02:27.614Z,99.16
2024-01-01T21:07:49.665Z,99.43
2024-01-01T21:13:11.427Z,99.04
2024-01-01T21:18:33.560Z,98.26
2024-01-01T21:23:55.751Z,98.55
2024-01-01T21:29:17.536Z,98.52
2024-01-01T21:34:39.304Z,98.86
2024-01-01T21:40:01.041Z,98.69
2024-01-01T21:45:22.768Z,98.56
2024-01-01T21:50:44.746Z,98.13
2024-01-01T21:56:07.224Z,98.07
2024-01-01T22:01:28.979Z,98.37
2024-01-01T22:06:50.704Z,98.15
2024-01-01T22:12:12.443Z,98.63
2024-01-01T22:17:34.375Z,98.85
2024-01-01T22:22:56.446Z,98.29
2024-01-01T22:28:18.205Z,98.57
2024-01-01T22:33:39.995Z,98.47
2024-01-01T22:39:01.763Z,98.38
2024-01-01T22:44:23.517Z,98.39
2024-01-01T22:49:45.314Z,98.31
2024-01-01T22:55:07.332Z,98.41
2024-01-01T23:00:29.085Z,98.60
2024-01-01T23:05:50.949Z,99.07
2024-01-01T23:11:12.963Z,98.81
2024-01-01T23:16:34.889Z,98.50
2024-01-01T23:21:56.614Z,98.64
2024-01-01T23:27:18.363Z,98.51
2024-01-01T23:32:40.220Z,98.22
2024-01-01T23:38:02.095Z,98.65
2024-01-01T23:43:23.829Z,98.02
2024-01-01T23:48:45.650Z,97.76
2024-01-01T23:54:07.525Z,97.84
2024-01-01T23:59:29.375Z,98.01
